sensor_id;sensor_type;location;lat;lon;timestamp;P1;durP1;ratioP1;P2;durP2;ratioP2
26750;SDS011;14345;48.272;25.926;2022-09-09T00:00:57;11.55;;;5.72;;
26750;SDS011;14345;48.272;25.926;2022-09-09T00:03:27;8.90;;;5.60;;
26750;SDS011;14345;48.272;25.926;2022-09-09T00:08:24;10.18;;;5.55;;
26750;SDS011;14345;48.272;25.926;2022-09-09T00:10:56;11.25;;;5.82;;
26750;SDS011;14345;48.272;25.926;2022-09-09T00:13:32;12.00;;;6.20;;
26750;SDS011;14345;48.272;25.926;2022-09-09T00:16:03;11.70;;;5.72;;
26750;SDS011;14345;48.272;25.926;2022-09-09T00:21:12;10.98;;;6.32;;
26750;SDS011;14345;48.272;25.926;2022-09-09T00:23:44;13.05;;;5.97;;
26750;SDS011;14345;48.272;25.926;2022-09-09T00:31:29;11.07;;;6.05;;
26750;SDS011;14345;48.272;25.926;2022-09-09T00:34:05;13.02;;;6.20;;
26750;SDS011;14345;48.272;25.926;2022-09-09T00:36:36;11.00;;;6.45;;
26750;SDS011;14345;48.272;25.926;2022-09-09T00:39:03;11.52;;;6.10;;
26750;SDS011;14345;48.272;25.926;2022-09-09T00:54:52;11.75;;;6.40;;
26750;SDS011;14345;48.272;25.926;2022-09-09T00:57:27;11.13;;;5.40;;
26750;SDS011;14345;48.272;25.926;2022-09-09T00:59:58;9.10;;;5.38;;
26750;SDS011;14345;48.272;25.926;2022-09-09T01:02:30;8.18;;;4.93;;
26750;SDS011;14345;48.272;25.926;2022-09-09T01:05:00;10.55;;;5.72;;
26750;SDS011;14345;48.272;25.926;2022-09-09T01:07:27;10.85;;;6.75;;
26750;SDS011;14345;48.272;25.926;2022-09-09T01:09:55;7.70;;;4.90;;
26750;SDS011;14345;48.272;25.926;2022-09-09T01:12:30;9.75;;;5.05;;
26750;SDS011;14345;48.272;25.926;2022-09-09T01:17:39;8.63;;;5.50;;
26750;SDS011;14345;48.272;25.926;2022-09-09T01:27:53;7.30;;;4.80;;
26750;SDS011;14345;48.272;25.926;2022-09-09T01:30:21;9.52;;;4.82;;
26750;SDS011;14345;48.272;25.926;2022-09-09T01:32:49;7.93;;;4.18;;
26750;SDS011;14345;48.272;25.926;2022-09-09T01:37:47;9.52;;;4.40;;
26750;SDS011;14345;48.272;25.926;2022-09-09T01:40:13;8.73;;;5.50;;
26750;SDS011;14345;48.272;25.926;2022-09-09T01:42:39;7.85;;;4.28;;
26750;SDS011;14345;48.272;25.926;2022-09-09T01:45:06;7.85;;;4.15;;
26750;SDS011;14345;48.272;25.926;2022-09-09T01:47:32;10.13;;;4.78;;
26750;SDS011;14345;48.272;25.926;2022-09-09T01:49:58;10.10;;;5.03;;
26750;SDS011;14345;48.272;25.926;2022-09-09T01:52:24;8.00;;;4.82;;
26750;SDS011;14345;48.272;25.926;2022-09-09T01:54:51;7.10;;;4.60;;
26750;SDS011;14345;48.272;25.926;2022-09-09T01:57:25;7.15;;;4.28;;
26750;SDS011;14345;48.272;25.926;2022-09-09T02:04:49;8.07;;;4.10;;
26750;SDS011;14345;48.272;25.926;2022-09-09T02:10:22;7.07;;;4.47;;
26750;SDS011;14345;48.272;25.926;2022-09-09T02:12:51;8.07;;;4.65;;
26750;SDS011;14345;48.272;25.926;2022-09-09T02:15:32;7.28;;;4.50;;
26750;SDS011;14345;48.272;25.926;2022-09-09T02:18:00;10.43;;;4.70;;
26750;SDS011;14345;48.272;25.926;2022-09-09T02:20:27;8.98;;;4.78;;
26750;SDS011;14345;48.272;25.926;2022-09-09T02:22:58;7.75;;;4.53;;
26750;SDS011;14345;48.272;25.926;2022-09-09T02:25:25;7.10;;;4.38;;
26750;SDS011;14345;48.272;25.926;2022-09-09T02:27:53;12.95;;;4.75;;
26750;SDS011;14345;48.272;25.926;2022-09-09T02:30:19;8.52;;;4.82;;
26750;SDS011;14345;48.272;25.926;2022-09-09T02:32:46;7.18;;;4.60;;
26750;SDS011;14345;48.272;25.926;2022-09-09T02:35:15;6.40;;;3.92;;
26750;SDS011;14345;48.272;25.926;2022-09-09T02:37:41;9.43;;;4.68;;
26750;SDS011;14345;48.272;25.926;2022-09-09T02:40:09;11.40;;;4.80;;
26750;SDS011;14345;48.272;25.926;2022-09-09T02:42:39;7.30;;;4.80;;
26750;SDS011;14345;48.272;25.926;2022-09-09T02:45:06;8.13;;;5.10;;
26750;SDS011;14345;48.272;25.926;2022-09-09T02:47:38;8.05;;;4.80;;
26750;SDS011;14345;48.272;25.926;2022-09-09T02:50:23;8.38;;;4.10;;
26750;SDS011;14345;48.272;25.926;2022-09-09T02:58:12;9.55;;;4.93;;
26750;SDS011;14345;48.272;25.926;2022-09-09T03:00:42;11.93;;;6.72;;
26750;SDS011;14345;48.272;25.926;2022-09-09T03:03:09;12.13;;;6.72;;
26750;SDS011;14345;48.272;25.926;2022-09-09T03:05:35;10.45;;;6.40;;
26750;SDS011;14345;48.272;25.926;2022-09-09T03:08:02;10.27;;;6.28;;
26750;SDS011;14345;48.272;25.926;2022-09-09T03:10:28;10.07;;;5.63;;
26750;SDS011;14345;48.272;25.926;2022-09-09T03:12:55;6.65;;;4.60;;
26750;SDS011;14345;48.272;25.926;2022-09-09T03:15:21;12.45;;;5.82;;
26750;SDS011;14345;48.272;25.926;2022-09-09T03:17:47;12.95;;;7.90;;
26750;SDS011;14345;48.272;25.926;2022-09-09T03:20:13;12.73;;;7.70;;
26750;SDS011;14345;48.272;25.926;2022-09-09T03:22:39;12.68;;;6.97;;
26750;SDS011;14345;48.272;25.926;2022-09-09T03:25:05;9.80;;;5.55;;
26750;SDS011;14345;48.272;25.926;2022-09-09T03:27:31;16.65;;;8.93;;
26750;SDS011;14345;48.272;25.926;2022-09-09T03:29:57;9.48;;;5.97;;
26750;SDS011;14345;48.272;25.926;2022-09-09T03:32:24;8.02;;;5.03;;
26750;SDS011;14345;48.272;25.926;2022-09-09T03:34:53;12.02;;;7.72;;
26750;SDS011;14345;48.272;25.926;2022-09-09T03:37:19;14.20;;;8.75;;
26750;SDS011;14345;48.272;25.926;2022-09-09T03:39:45;9.65;;;6.78;;
26750;SDS011;14345;48.272;25.926;2022-09-09T03:42:12;9.55;;;6.07;;
26750;SDS011;14345;48.272;25.926;2022-09-09T03:44:39;14.70;;;6.45;;
26750;SDS011;14345;48.272;25.926;2022-09-09T03:47:06;10.70;;;6.43;;
26750;SDS011;14345;48.272;25.926;2022-09-09T03:49:33;14.32;;;7.60;;
26750;SDS011;14345;48.272;25.926;2022-09-09T03:51:59;13.77;;;6.70;;
26750;SDS011;14345;48.272;25.926;2022-09-09T03:54:26;12.82;;;6.32;;
26750;SDS011;14345;48.272;25.926;2022-09-09T03:56:52;9.38;;;6.20;;
26750;SDS011;14345;48.272;25.926;2022-09-09T03:59:18;10.35;;;6.93;;
26750;SDS011;14345;48.272;25.926;2022-09-09T04:01:46;10.68;;;6.38;;
26750;SDS011;14345;48.272;25.926;2022-09-09T04:04:12;11.40;;;5.97;;
26750;SDS011;14345;48.272;25.926;2022-09-09T04:06:38;8.13;;;5.88;;
26750;SDS011;14345;48.272;25.926;2022-09-09T04:09:04;8.82;;;5.45;;
26750;SDS011;14345;48.272;25.926;2022-09-09T04:11:30;8.98;;;5.40;;
26750;SDS011;14345;48.272;25.926;2022-09-09T04:13:57;8.35;;;5.38;;
26750;SDS011;14345;48.272;25.926;2022-09-09T04:16:23;11.38;;;5.63;;
26750;SDS011;14345;48.272;25.926;2022-09-09T04:18:49;9.18;;;5.50;;
26750;SDS011;14345;48.272;25.926;2022-09-09T04:21:15;8.75;;;4.78;;
26750;SDS011;14345;48.272;25.926;2022-09-09T04:23:42;9.93;;;4.93;;
26750;SDS011;14345;48.272;25.926;2022-09-09T04:26:08;12.23;;;5.35;;
26750;SDS011;14345;48.272;25.926;2022-09-09T04:28:35;9.27;;;4.95;;
26750;SDS011;14345;48.272;25.926;2022-09-09T04:31:05;8.35;;;4.88;;
26750;SDS011;14345;48.272;25.926;2022-09-09T04:33:31;12.85;;;4.95;;
26750;SDS011;14345;48.272;25.926;2022-09-09T04:35:57;13.13;;;6.45;;
26750;SDS011;14345;48.272;25.926;2022-09-09T04:38:23;11.60;;;5.70;;
26750;SDS011;14345;48.272;25.926;2022-09-09T04:40:51;8.52;;;5.47;;
26750;SDS011;14345;48.272;25.926;2022-09-09T04:43:18;11.75;;;6.25;;
26750;SDS011;14345;48.272;25.926;2022-09-09T04:45:49;9.88;;;5.13;;
26750;SDS011;14345;48.272;25.926;2022-09-09T04:48:16;9.27;;;5.10;;
26750;SDS011;14345;48.272;25.926;2022-09-09T04:50:42;8.55;;;5.40;;
26750;SDS011;14345;48.272;25.926;2022-09-09T04:53:08;10.63;;;5.68;;
26750;SDS011;14345;48.272;25.926;2022-09-09T04:55:35;10.45;;;5.85;;
26750;SDS011;14345;48.272;25.926;2022-09-09T04:58:04;13.45;;;6.97;;
26750;SDS011;14345;48.272;25.926;2022-09-09T05:00:31;7.88;;;5.03;;
26750;SDS011;14345;48.272;25.926;2022-09-09T05:02:57;15.73;;;6.53;;
26750;SDS011;14345;48.272;25.926;2022-09-09T05:05:23;11.65;;;7.05;;
26750;SDS011;14345;48.272;25.926;2022-09-09T05:07:50;12.07;;;6.95;;
26750;SDS011;14345;48.272;25.926;2022-09-09T05:10:16;9.20;;;5.88;;
26750;SDS011;14345;48.272;25.926;2022-09-09T05:12:43;10.40;;;6.15;;
26750;SDS011;14345;48.272;25.926;2022-09-09T05:15:09;10.60;;;5.82;;
26750;SDS011;14345;48.272;25.926;2022-09-09T05:17:35;10.25;;;5.60;;
26750;SDS011;14345;48.272;25.926;2022-09-09T05:20:01;8.65;;;5.25;;
26750;SDS011;14345;48.272;25.926;2022-09-09T05:22:28;8.75;;;5.60;;
26750;SDS011;14345;48.272;25.926;2022-09-09T05:24:55;9.65;;;6.35;;
26750;SDS011;14345;48.272;25.926;2022-09-09T05:27:21;9.40;;;5.90;;
26750;SDS011;14345;48.272;25.926;2022-09-09T05:29:47;11.45;;;6.60;;
26750;SDS011;14345;48.272;25.926;2022-09-09T05:32:13;13.20;;;6.68;;
26750;SDS011;14345;48.272;25.926;2022-09-09T05:34:41;10.85;;;5.90;;
26750;SDS011;14345;48.272;25.926;2022-09-09T05:37:07;12.77;;;6.65;;
26750;SDS011;14345;48.272;25.926;2022-09-09T05:39:33;8.73;;;5.78;;
26750;SDS011;14345;48.272;25.926;2022-09-09T05:42:01;13.43;;;7.60;;
26750;SDS011;14345;48.272;25.926;2022-09-09T05:44:29;14.93;;;7.65;;
26750;SDS011;14345;48.272;25.926;2022-09-09T05:46:55;16.80;;;7.85;;
26750;SDS011;14345;48.272;25.926;2022-09-09T05:49:23;11.65;;;7.07;;
26750;SDS011;14345;48.272;25.926;2022-09-09T05:51:49;13.98;;;7.00;;
26750;SDS011;14345;48.272;25.926;2022-09-09T05:54:16;11.90;;;6.82;;
26750;SDS011;14345;48.272;25.926;2022-09-09T05:56:42;10.40;;;5.97;;
26750;SDS011;14345;48.272;25.926;2022-09-09T05:59:08;9.63;;;6.03;;
26750;SDS011;14345;48.272;25.926;2022-09-09T06:01:34;11.68;;;5.95;;
26750;SDS011;14345;48.272;25.926;2022-09-09T06:04:01;12.25;;;6.38;;
26750;SDS011;14345;48.272;25.926;2022-09-09T06:06:33;10.65;;;6.55;;
26750;SDS011;14345;48.272;25.926;2022-09-09T06:09:05;14.30;;;7.38;;
26750;SDS011;14345;48.272;25.926;2022-09-09T06:11:34;15.35;;;8.18;;
26750;SDS011;14345;48.272;25.926;2022-09-09T06:14:01;13.43;;;8.05;;
26750;SDS011;14345;48.272;25.926;2022-09-09T06:16:28;14.68;;;6.85;;
26750;SDS011;14345;48.272;25.926;2022-09-09T06:18:54;15.10;;;7.80;;
26750;SDS011;14345;48.272;25.926;2022-09-09T06:23:47;11.88;;;7.28;;
26750;SDS011;14345;48.272;25.926;2022-09-09T06:28:43;14.80;;;6.90;;
26750;SDS011;14345;48.272;25.926;2022-09-09T06:31:11;12.90;;;6.63;;
26750;SDS011;14345;48.272;25.926;2022-09-09T06:33:38;10.57;;;6.45;;
26750;SDS011;14345;48.272;25.926;2022-09-09T06:36:11;10.68;;;6.60;;
26750;SDS011;14345;48.272;25.926;2022-09-09T06:38:37;11.55;;;6.25;;
26750;SDS011;14345;48.272;25.926;2022-09-09T06:41:03;10.93;;;5.97;;
26750;SDS011;14345;48.272;25.926;2022-09-09T06:43:30;10.65;;;6.55;;
26750;SDS011;14345;48.272;25.926;2022-09-09T06:46:01;13.70;;;6.55;;
26750;SDS011;14345;48.272;25.926;2022-09-09T06:48:27;10.40;;;6.13;;
26750;SDS011;14345;48.272;25.926;2022-09-09T06:51:04;11.88;;;6.60;;
26750;SDS011;14345;48.272;25.926;2022-09-09T06:53:31;12.40;;;6.82;;
26750;SDS011;14345;48.272;25.926;2022-09-09T06:58:48;11.10;;;6.57;;
26750;SDS011;14345;48.272;25.926;2022-09-09T07:01:15;10.98;;;6.70;;
26750;SDS011;14345;48.272;25.926;2022-09-09T07:03:44;10.45;;;7.00;;
26750;SDS011;14345;48.272;25.926;2022-09-09T07:06:14;10.43;;;6.63;;
26750;SDS011;14345;48.272;25.926;2022-09-09T07:08:42;14.60;;;8.18;;
26750;SDS011;14345;48.272;25.926;2022-09-09T07:11:08;14.80;;;8.43;;
26750;SDS011;14345;48.272;25.926;2022-09-09T07:13:36;14.43;;;8.65;;
26750;SDS011;14345;48.272;25.926;2022-09-09T07:16:12;18.95;;;8.98;;
26750;SDS011;14345;48.272;25.926;2022-09-09T07:18:39;17.30;;;9.18;;
26750;SDS011;14345;48.272;25.926;2022-09-09T07:21:05;14.70;;;8.73;;
26750;SDS011;14345;48.272;25.926;2022-09-09T07:23:32;15.02;;;8.75;;
26750;SDS011;14345;48.272;25.926;2022-09-09T07:26:00;17.00;;;9.77;;
26750;SDS011;14345;48.272;25.926;2022-09-09T07:28:26;13.13;;;9.23;;
26750;SDS011;14345;48.272;25.926;2022-09-09T07:30:57;13.20;;;8.80;;
26750;SDS011;14345;48.272;25.926;2022-09-09T07:33:24;11.88;;;7.55;;
26750;SDS011;14345;48.272;25.926;2022-09-09T07:35:51;12.18;;;7.93;;
26750;SDS011;14345;48.272;25.926;2022-09-09T07:38:18;12.98;;;8.02;;
26750;SDS011;14345;48.272;25.926;2022-09-09T07:40:44;13.13;;;8.57;;
26750;SDS011;14345;48.272;25.926;2022-09-09T07:43:10;16.63;;;8.88;;
26750;SDS011;14345;48.272;25.926;2022-09-09T07:45:36;13.48;;;8.60;;
26750;SDS011;14345;48.272;25.926;2022-09-09T07:48:03;12.63;;;7.85;;
26750;SDS011;14345;48.272;25.926;2022-09-09T07:50:29;12.95;;;7.93;;
26750;SDS011;14345;48.272;25.926;2022-09-09T07:52:55;12.10;;;7.80;;
26750;SDS011;14345;48.272;25.926;2022-09-09T07:55:21;14.10;;;8.02;;
26750;SDS011;14345;48.272;25.926;2022-09-09T07:57:52;12.65;;;7.60;;
26750;SDS011;14345;48.272;25.926;2022-09-09T08:00:18;15.32;;;8.77;;
26750;SDS011;14345;48.272;25.926;2022-09-09T08:02:45;14.07;;;8.65;;
26750;SDS011;14345;48.272;25.926;2022-09-09T08:05:11;15.93;;;8.07;;
26750;SDS011;14345;48.272;25.926;2022-09-09T08:07:38;15.30;;;8.45;;
26750;SDS011;14345;48.272;25.926;2022-09-09T08:10:04;14.20;;;8.20;;
26750;SDS011;14345;48.272;25.926;2022-09-09T08:12:31;13.98;;;8.98;;
26750;SDS011;14345;48.272;25.926;2022-09-09T08:14:57;14.18;;;8.88;;
26750;SDS011;14345;48.272;25.926;2022-09-09T08:17:23;15.57;;;8.95;;
26750;SDS011;14345;48.272;25.926;2022-09-09T08:19:50;13.77;;;8.50;;
26750;SDS011;14345;48.272;25.926;2022-09-09T08:22:16;12.13;;;8.70;;
26750;SDS011;14345;48.272;25.926;2022-09-09T08:24:42;15.07;;;8.73;;
26750;SDS011;14345;48.272;25.926;2022-09-09T08:27:08;16.88;;;9.35;;
26750;SDS011;14345;48.272;25.926;2022-09-09T08:29:35;16.10;;;8.90;;
26750;SDS011;14345;48.272;25.926;2022-09-09T08:32:02;13.88;;;9.13;;
26750;SDS011;14345;48.272;25.926;2022-09-09T08:34:29;12.40;;;8.15;;
26750;SDS011;14345;48.272;25.926;2022-09-09T08:36:56;11.63;;;7.95;;
26750;SDS011;14345;48.272;25.926;2022-09-09T08:39:22;13.05;;;8.65;;
26750;SDS011;14345;48.272;25.926;2022-09-09T08:49:57;14.80;;;9.50;;
26750;SDS011;14345;48.272;25.926;2022-09-09T08:57:41;15.85;;;8.65;;
26750;SDS011;14345;48.272;25.926;2022-09-09T09:00:10;12.48;;;7.78;;
26750;SDS011;14345;48.272;25.926;2022-09-09T09:07:41;14.15;;;8.10;;
26750;SDS011;14345;48.272;25.926;2022-09-09T09:12:38;14.95;;;8.52;;
26750;SDS011;14345;48.272;25.926;2022-09-09T09:15:11;10.40;;;6.68;;
26750;SDS011;14345;48.272;25.926;2022-09-09T09:17:41;10.75;;;7.05;;
26750;SDS011;14345;48.272;25.926;2022-09-09T09:20:11;10.32;;;7.32;;
26750;SDS011;14345;48.272;25.926;2022-09-09T09:22:49;11.25;;;7.50;;
26750;SDS011;14345;48.272;25.926;2022-09-09T09:25:23;11.68;;;7.43;;
26750;SDS011;14345;48.272;25.926;2022-09-09T09:27:57;12.32;;;8.05;;
26750;SDS011;14345;48.272;25.926;2022-09-09T09:30:31;12.07;;;7.25;;
26750;SDS011;14345;48.272;25.926;2022-09-09T09:33:05;11.00;;;6.65;;
26750;SDS011;14345;48.272;25.926;2022-09-09T09:35:34;10.82;;;7.13;;
26750;SDS011;14345;48.272;25.926;2022-09-09T09:38:00;12.82;;;6.93;;
26750;SDS011;14345;48.272;25.926;2022-09-09T09:40:27;9.18;;;6.10;;
26750;SDS011;14345;48.272;25.926;2022-09-09T09:42:57;8.45;;;6.13;;
26750;SDS011;14345;48.272;25.926;2022-09-09T09:48:00;12.35;;;7.10;;
26750;SDS011;14345;48.272;25.926;2022-09-09T09:50:27;8.68;;;6.60;;
26750;SDS011;14345;48.272;25.926;2022-09-09T09:52:57;13.98;;;7.38;;
26750;SDS011;14345;48.272;25.926;2022-09-09T09:55:24;10.07;;;6.70;;
26750;SDS011;14345;48.272;25.926;2022-09-09T09:57:50;9.50;;;6.30;;
26750;SDS011;14345;48.272;25.926;2022-09-09T10:00:21;9.40;;;6.72;;
26750;SDS011;14345;48.272;25.926;2022-09-09T10:02:47;8.43;;;5.90;;
26750;SDS011;14345;48.272;25.926;2022-09-09T10:05:15;11.25;;;7.00;;
26750;SDS011;14345;48.272;25.926;2022-09-09T10:07:42;8.48;;;6.63;;
26750;SDS011;14345;48.272;25.926;2022-09-09T10:10:15;10.65;;;6.70;;
26750;SDS011;14345;48.272;25.926;2022-09-09T10:20:34;12.93;;;5.80;;
26750;SDS011;14345;48.272;25.926;2022-09-09T10:25:55;6.75;;;5.47;;
26750;SDS011;14345;48.272;25.926;2022-09-09T10:31:17;10.55;;;5.28;;
26750;SDS011;14345;48.272;25.926;2022-09-09T10:36:32;11.43;;;6.13;;
26750;SDS011;14345;48.272;25.926;2022-09-09T10:39:05;10.48;;;6.97;;
26750;SDS011;14345;48.272;25.926;2022-09-09T10:52:17;13.05;;;7.25;;
26750;SDS011;14345;48.272;25.926;2022-09-09T10:57:50;10.05;;;6.47;;
26750;SDS011;14345;48.272;25.926;2022-09-09T11:02:47;8.85;;;6.10;;
26750;SDS011;14345;48.272;25.926;2022-09-09T11:07:51;7.72;;;5.55;;
26750;SDS011;14345;48.272;25.926;2022-09-09T11:10:22;10.60;;;6.00;;
26750;SDS011;14345;48.272;25.926;2022-09-09T11:12:50;8.00;;;5.43;;
26750;SDS011;14345;48.272;25.926;2022-09-09T11:15:26;9.18;;;5.70;;
26750;SDS011;14345;48.272;25.926;2022-09-09T11:17:55;11.00;;;5.35;;
26750;SDS011;14345;48.272;25.926;2022-09-09T11:20:22;7.93;;;5.47;;
26750;SDS011;14345;48.272;25.926;2022-09-09T11:23:01;8.88;;;5.75;;
26750;SDS011;14345;48.272;25.926;2022-09-09T11:25:32;8.20;;;5.95;;
26750;SDS011;14345;48.272;25.926;2022-09-09T11:35:45;7.65;;;5.13;;
26750;SDS011;14345;48.272;25.926;2022-09-09T11:38:18;9.73;;;5.13;;
26750;SDS011;14345;48.272;25.926;2022-09-09T11:40:45;7.63;;;5.03;;
26750;SDS011;14345;48.272;25.926;2022-09-09T11:43:13;7.55;;;5.05;;
26750;SDS011;14345;48.272;25.926;2022-09-09T11:45:42;5.88;;;4.40;;
26750;SDS011;14345;48.272;25.926;2022-09-09T11:48:26;9.65;;;5.13;;
26750;SDS011;14345;48.272;25.926;2022-09-09T11:51:07;8.98;;;5.22;;
26750;SDS011;14345;48.272;25.926;2022-09-09T11:53:34;6.32;;;5.00;;
26750;SDS011;14345;48.272;25.926;2022-09-09T11:56:02;8.45;;;4.55;;
26750;SDS011;14345;48.272;25.926;2022-09-09T11:58:30;7.38;;;4.93;;
26750;SDS011;14345;48.272;25.926;2022-09-09T12:00:58;6.95;;;5.22;;
26750;SDS011;14345;48.272;25.926;2022-09-09T12:03:36;9.15;;;5.80;;
26750;SDS011;14345;48.272;25.926;2022-09-09T12:06:19;9.32;;;4.93;;
26750;SDS011;14345;48.272;25.926;2022-09-09T12:08:51;6.40;;;4.53;;
26750;SDS011;14345;48.272;25.926;2022-09-09T12:11:28;7.57;;;5.07;;
26750;SDS011;14345;48.272;25.926;2022-09-09T12:13:56;6.65;;;4.70;;
26750;SDS011;14345;48.272;25.926;2022-09-09T12:16:36;8.45;;;4.68;;
26750;SDS011;14345;48.272;25.926;2022-09-09T12:24:08;6.40;;;4.25;;
26750;SDS011;14345;48.272;25.926;2022-09-09T12:26:49;6.28;;;4.78;;
26750;SDS011;14345;48.272;25.926;2022-09-09T12:36:57;5.80;;;4.65;;
26750;SDS011;14345;48.272;25.926;2022-09-09T12:39:29;6.70;;;5.10;;
26750;SDS011;14345;48.272;25.926;2022-09-09T12:41:58;6.07;;;4.50;;
26750;SDS011;14345;48.272;25.926;2022-09-09T12:44:25;6.45;;;4.70;;
26750;SDS011;14345;48.272;25.926;2022-09-09T12:46:53;5.65;;;4.43;;
26750;SDS011;14345;48.272;25.926;2022-09-09T12:51:51;7.90;;;5.13;;
26750;SDS011;14345;48.272;25.926;2022-09-09T12:54:17;8.20;;;5.38;;
26750;SDS011;14345;48.272;25.926;2022-09-09T12:56:45;9.55;;;5.25;;
26750;SDS011;14345;48.272;25.926;2022-09-09T12:59:34;5.95;;;4.68;;
26750;SDS011;14345;48.272;25.926;2022-09-09T13:02:00;7.35;;;5.03;;
26750;SDS011;14345;48.272;25.926;2022-09-09T13:04:26;9.25;;;4.78;;
26750;SDS011;14345;48.272;25.926;2022-09-09T13:06:52;5.82;;;4.68;;
26750;SDS011;14345;48.272;25.926;2022-09-09T13:09:18;8.57;;;5.43;;
26750;SDS011;14345;48.272;25.926;2022-09-09T13:11:46;6.45;;;4.65;;
26750;SDS011;14345;48.272;25.926;2022-09-09T13:14:18;5.45;;;4.28;;
26750;SDS011;14345;48.272;25.926;2022-09-09T13:16:53;7.45;;;5.20;;
26750;SDS011;14345;48.272;25.926;2022-09-09T13:19:20;6.97;;;5.18;;
26750;SDS011;14345;48.272;25.926;2022-09-09T13:21:46;6.10;;;4.85;;
26750;SDS011;14345;48.272;25.926;2022-09-09T13:26:57;7.90;;;6.43;;
26750;SDS011;14345;48.272;25.926;2022-09-09T13:29:23;8.82;;;5.90;;
26750;SDS011;14345;48.272;25.926;2022-09-09T13:31:50;8.38;;;6.03;;
26750;SDS011;14345;48.272;25.926;2022-09-09T13:34:26;8.18;;;5.97;;
26750;SDS011;14345;48.272;25.926;2022-09-09T13:36:52;6.65;;;5.35;;
26750;SDS011;14345;48.272;25.926;2022-09-09T13:39:19;10.63;;;5.85;;
26750;SDS011;14345;48.272;25.926;2022-09-09T13:41:46;8.02;;;5.72;;
26750;SDS011;14345;48.272;25.926;2022-09-09T13:46:58;8.48;;;5.75;;
26750;SDS011;14345;48.272;25.926;2022-09-09T13:49:26;9.90;;;6.85;;
26750;SDS011;14345;48.272;25.926;2022-09-09T13:52:03;7.22;;;6.00;;
26750;SDS011;14345;48.272;25.926;2022-09-09T13:54:29;10.77;;;6.82;;
26750;SDS011;14345;48.272;25.926;2022-09-09T13:56:55;9.13;;;6.47;;
26750;SDS011;14345;48.272;25.926;2022-09-09T13:59:22;9.38;;;6.35;;
26750;SDS011;14345;48.272;25.926;2022-09-09T14:01:49;9.90;;;6.72;;
26750;SDS011;14345;48.272;25.926;2022-09-09T14:04:17;11.43;;;6.95;;
26750;SDS011;14345;48.272;25.926;2022-09-09T14:06:46;9.98;;;6.57;;
26750;SDS011;14345;48.272;25.926;2022-09-09T14:09:14;8.18;;;6.78;;
26750;SDS011;14345;48.272;25.926;2022-09-09T14:11:40;9.25;;;7.28;;
26750;SDS011;14345;48.272;25.926;2022-09-09T14:14:06;9.88;;;7.13;;
26750;SDS011;14345;48.272;25.926;2022-09-09T14:16:32;8.85;;;5.75;;
26750;SDS011;14345;48.272;25.926;2022-09-09T14:18:59;8.23;;;6.20;;
26750;SDS011;14345;48.272;25.926;2022-09-09T14:21:26;8.75;;;5.85;;
26750;SDS011;14345;48.272;25.926;2022-09-09T14:23:52;7.88;;;6.05;;
26750;SDS011;14345;48.272;25.926;2022-09-09T14:26:18;9.27;;;6.43;;
26750;SDS011;14345;48.272;25.926;2022-09-09T14:28:45;10.88;;;5.82;;
26750;SDS011;14345;48.272;25.926;2022-09-09T14:31:12;7.82;;;5.95;;
26750;SDS011;14345;48.272;25.926;2022-09-09T14:33:38;10.70;;;6.15;;
26750;SDS011;14345;48.272;25.926;2022-09-09T14:36:05;7.43;;;6.03;;
26750;SDS011;14345;48.272;25.926;2022-09-09T14:38:34;7.35;;;6.55;;
26750;SDS011;14345;48.272;25.926;2022-09-09T14:41:05;8.35;;;5.10;;
26750;SDS011;14345;48.272;25.926;2022-09-09T14:43:31;9.45;;;6.10;;
26750;SDS011;14345;48.272;25.926;2022-09-09T14:46:04;8.63;;;6.93;;
26750;SDS011;14345;48.272;25.926;2022-09-09T14:48:30;7.70;;;6.63;;
26750;SDS011;14345;48.272;25.926;2022-09-09T14:50:56;8.68;;;6.32;;
26750;SDS011;14345;48.272;25.926;2022-09-09T14:53:23;8.90;;;6.28;;
26750;SDS011;14345;48.272;25.926;2022-09-09T14:55:49;7.43;;;6.10;;
26750;SDS011;14345;48.272;25.926;2022-09-09T14:58:15;9.55;;;5.78;;
26750;SDS011;14345;48.272;25.926;2022-09-09T15:00:41;12.70;;;6.72;;
26750;SDS011;14345;48.272;25.926;2022-09-09T15:03:07;8.40;;;5.35;;
26750;SDS011;14345;48.272;25.926;2022-09-09T15:05:35;7.90;;;5.97;;
26750;SDS011;14345;48.272;25.926;2022-09-09T15:08:01;7.55;;;5.90;;
26750;SDS011;14345;48.272;25.926;2022-09-09T15:10:27;10.05;;;6.57;;
26750;SDS011;14345;48.272;25.926;2022-09-09T15:12:56;8.30;;;6.90;;
26750;SDS011;14345;48.272;25.926;2022-09-09T15:15:22;9.25;;;7.18;;
26750;SDS011;14345;48.272;25.926;2022-09-09T15:17:48;9.15;;;7.28;;
26750;SDS011;14345;48.272;25.926;2022-09-09T15:20:14;8.82;;;6.75;;
26750;SDS011;14345;48.272;25.926;2022-09-09T15:22:41;8.05;;;6.85;;
26750;SDS011;14345;48.272;25.926;2022-09-09T15:25:07;9.85;;;6.97;;
26750;SDS011;14345;48.272;25.926;2022-09-09T15:27:33;9.85;;;7.18;;
26750;SDS011;14345;48.272;25.926;2022-09-09T15:30:00;10.98;;;7.80;;
26750;SDS011;14345;48.272;25.926;2022-09-09T15:32:26;11.50;;;8.07;;
26750;SDS011;14345;48.272;25.926;2022-09-09T15:34:52;11.02;;;8.18;;
26750;SDS011;14345;48.272;25.926;2022-09-09T15:37:18;14.15;;;7.72;;
26750;SDS011;14345;48.272;25.926;2022-09-09T15:39:44;9.45;;;7.57;;
26750;SDS011;14345;48.272;25.926;2022-09-09T15:42:10;11.63;;;8.60;;
26750;SDS011;14345;48.272;25.926;2022-09-09T15:44:42;10.18;;;8.30;;
26750;SDS011;14345;48.272;25.926;2022-09-09T15:47:12;12.38;;;8.65;;
26750;SDS011;14345;48.272;25.926;2022-09-09T15:49:38;10.77;;;8.55;;
26750;SDS011;14345;48.272;25.926;2022-09-09T15:52:04;10.18;;;8.05;;
26750;SDS011;14345;48.272;25.926;2022-09-09T15:54:31;13.40;;;9.13;;
26750;SDS011;14345;48.272;25.926;2022-09-09T15:56:59;10.07;;;8.30;;
26750;SDS011;14345;48.272;25.926;2022-09-09T15:59:26;11.57;;;8.55;;
26750;SDS011;14345;48.272;25.926;2022-09-09T16:01:55;10.52;;;8.38;;
26750;SDS011;14345;48.272;25.926;2022-09-09T16:04:22;12.77;;;8.85;;
26750;SDS011;14345;48.272;25.926;2022-09-09T16:06:50;10.68;;;8.35;;
26750;SDS011;14345;48.272;25.926;2022-09-09T16:09:16;14.98;;;10.85;;
26750;SDS011;14345;48.272;25.926;2022-09-09T16:11:42;13.20;;;10.68;;
26750;SDS011;14345;48.272;25.926;2022-09-09T16:14:08;13.32;;;9.30;;
26750;SDS011;14345;48.272;25.926;2022-09-09T16:16:36;13.95;;;9.50;;
26750;SDS011;14345;48.272;25.926;2022-09-09T16:19:03;10.60;;;8.70;;
26750;SDS011;14345;48.272;25.926;2022-09-09T16:21:31;15.48;;;10.10;;
26750;SDS011;14345;48.272;25.926;2022-09-09T16:23:59;12.55;;;9.60;;
26750;SDS011;14345;48.272;25.926;2022-09-09T16:26:25;13.27;;;10.15;;
26750;SDS011;14345;48.272;25.926;2022-09-09T16:28:52;14.48;;;10.77;;
26750;SDS011;14345;48.272;25.926;2022-09-09T16:31:20;13.55;;;9.95;;
26750;SDS011;14345;48.272;25.926;2022-09-09T16:33:46;15.25;;;10.18;;
26750;SDS011;14345;48.272;25.926;2022-09-09T16:36:17;13.82;;;10.15;;
26750;SDS011;14345;48.272;25.926;2022-09-09T16:38:44;15.35;;;11.63;;
26750;SDS011;14345;48.272;25.926;2022-09-09T16:41:10;17.67;;;12.70;;
26750;SDS011;14345;48.272;25.926;2022-09-09T16:43:37;17.83;;;12.65;;
26750;SDS011;14345;48.272;25.926;2022-09-09T16:46:10;18.48;;;13.90;;
26750;SDS011;14345;48.272;25.926;2022-09-09T16:48:36;17.75;;;12.73;;
26750;SDS011;14345;48.272;25.926;2022-09-09T16:51:07;20.00;;;12.75;;
26750;SDS011;14345;48.272;25.926;2022-09-09T16:53:35;16.92;;;11.93;;
26750;SDS011;14345;48.272;25.926;2022-09-09T16:56:05;15.30;;;12.27;;